createdAt,value
2018-07-21T00:00:42.785Z,42.45
2018-07-21T00:03:12.284Z,42.68
2018-07-21T00:05:41.417Z,42.53
2018-07-21T00:08:10.652Z,43.70
2018-07-21T00:10:39.828Z,44.44
2018-07-21T00:13:09.037Z,45.15
2018-07-21T00:15:38.209Z,45.48
2018-07-21T00:18:07.444Z,46.13
2018-07-21T00:20:36.642Z,46.09
2018-07-21T00:23:05.840Z,46.39
2018-07-21T00:25:35.144Z,47.00
2018-07-21T00:28:04.320Z,46.91
2018-07-21T00:30:33.592Z,46.63
2018-07-21T00:33:03.102Z,46.91
2018-07-21T00:35:32.258Z,47.15
2018-07-21T00:38:01.520Z,46.55
2018-07-21T00:40:30.862Z,45.57
2018-07-21T00:43:00.000Z,45.85
2018-07-21T00:45:29.169Z,46.56
2018-07-21T00:47:58.301Z,47.48
2018-07-21T00:50:27.460Z,46.94
2018-07-21T00:52:56.616Z,47.25
2018-07-21T00:55:25.812Z,48.17
2018-07-21T00:57:55.073Z,49.08
2018-07-21T01:00:24.305Z,47.87
2018-07-21T01:02:53.432Z,46.92
2018-07-21T01:05:22.698Z,47.05
2018-07-21T01:07:51.824Z,47.57
2018-07-21T01:10:21.107Z,46.70
2018-07-21T01:12:50.248Z,46.94
2018-07-21T01:15:19.534Z,47.27
2018-07-21T01:17:48.733Z,46.34
2018-07-21T01:20:17.942Z,45.88
2018-07-21T01:22:47.104Z,45.96
2018-07-21T01:25:16.277Z,45.87
2018-07-21T01:27:45.432Z,45.67
2018-07-21T01:30:14.678Z,45.95
2018-07-21T01:32:43.933Z,45.53
2018-07-21T01:35:13.160Z,46.00
2018-07-21T01:37:42.474Z,45.50
2018-07-21T01:40:11.660Z,45.96
2018-07-21T01:42:40.791Z,45.95
2018-07-21T01:45:10.032Z,45.58
2018-07-21T01:47:39.212Z,45.84
2018-07-21T01:50:08.457Z,46.88
2018-07-21T01:52:37.776Z,46.79
2018-07-21T01:55:07.367Z,47.44
2018-07-21T01:57:36.507Z,47.54
2018-07-21T02:00:06.196Z,47.82
2018-07-21T02:02:35.324Z,47.18
2018-07-21T02:05:04.932Z,46.39
2018-07-21T02:07:34.116Z,46.47
2018-07-21T02:10:03.394Z,47.17
2018-07-21T02:12:33.572Z,47.02
2018-07-21T02:15:03.059Z,47.02
2018-07-21T02:17:32.257Z,47.25
2018-07-21T02:20:01.441Z,47.81
2018-07-21T02:22:30.711Z,47.44
2018-07-21T02:24:59.969Z,47.60
2018-07-21T02:27:29.244Z,47.90
2018-07-21T02:29:58.501Z,48.35
2018-07-21T02:32:27.739Z,48.61
2018-07-21T02:34:56.977Z,48.81
2018-07-21T02:37:26.231Z,48.85
2018-07-21T02:39:55.491Z,48.73
2018-07-21T02:42:24.641Z,48.50
2018-07-21T02:44:53.968Z,48.29
2018-07-21T02:47:23.120Z,48.59
2018-07-21T02:49:52.385Z,48.37
2018-07-21T02:52:21.617Z,48.56
2018-07-21T02:54:50.808Z,48.48
2018-07-21T02:57:19.952Z,48.66
2018-07-21T02:59:49.129Z,48.69
2018-07-21T03:02:18.258Z,49.04
2018-07-21T03:04:47.504Z,49.68
2018-07-21T03:07:16.913Z,49.04
2018-07-21T03:09:46.225Z,50.44
2018-07-21T03:12:15.390Z,50.49
2018-07-21T03:14:44.557Z,50.91
2018-07-21T03:17:13.849Z,51.21
2018-07-21T03:19:43.045Z,51.20
2018-07-21T03:22:12.301Z,50.79
2018-07-21T03:24:42.253Z,51.22
2018-07-21T03:27:11.373Z,50.98
2018-07-21T03:29:40.544Z,51.28
2018-07-21T03:32:09.741Z,51.00
2018-07-21T03:34:38.929Z,51.15
2018-07-21T03:37:08.100Z,51.09
2018-07-21T03:39:37.251Z,51.26
2018-07-21T03:42:06.490Z,50.99
2018-07-21T03:44:35.746Z,50.42
2018-07-21T03:47:04.989Z,50.45
2018-07-21T03:49:34.132Z,50.78
2018-07-21T03:52:03.552Z,51.05
2018-07-21T03:54:32.773Z,50.72
2018-07-21T03:57:02.022Z,51.17
2018-07-21T03:59:31.149Z,51.45
2018-07-21T04:02:00.420Z,51.50
2018-07-21T04:04:29.576Z,50.52
2018-07-21T04:06:58.914Z,51.08
2018-07-21T04:09:28.026Z,51.58
2018-07-21T04:11:57.192Z,51.28
2018-07-21T04:14:26.320Z,51.48
2018-07-21T04:16:55.500Z,51.53
2018-07-21T04:19:24.640Z,51.64
2018-07-21T04:21:53.911Z,51.43
2018-07-21T04:24:23.034Z,51.34
2018-07-21T04:26:52.214Z,50.80
2018-07-21T04:29:21.337Z,50.18
2018-07-21T04:31:50.647Z,50.19
2018-07-21T04:34:19.984Z,50.07
2018-07-21T04:36:49.133Z,50.38
2018-07-21T04:39:18.476Z,51.58
2018-07-21T04:41:47.612Z,50.70
2018-07-21T04:44:16.776Z,49.98
2018-07-21T04:46:45.950Z,50.34
2018-07-21T04:49:15.158Z,49.94
2018-07-21T04:51:44.381Z,49.09
2018-07-21T04:54:13.575Z,49.34
2018-07-21T04:56:42.704Z,49.39
2018-07-21T04:59:11.867Z,49.37
2018-07-21T05:01:41.033Z,49.03
2018-07-21T05:04:10.389Z,48.86
2018-07-21T05:06:39.704Z,49.25
2018-07-21T05:09:10.733Z,48.04
2018-07-21T05:11:39.960Z,47.34
2018-07-21T05:14:09.513Z,47.22
2018-07-21T05:16:39.636Z,45.36
2018-07-21T05:19:08.824Z,45.96
2018-07-21T05:21:38.159Z,44.81
2018-07-21T05:24:07.435Z,44.00
2018-07-21T05:26:36.585Z,44.81
2018-07-21T05:29:05.785Z,43.14
2018-07-21T05:31:35.050Z,43.72
2018-07-21T05:34:04.343Z,43.89
2018-07-21T05:36:33.479Z,44.94
2018-07-21T05:39:02.951Z,44.52
2018-07-21T05:41:32.070Z,44.65
2018-07-21T05:44:01.233Z,44.32
2018-07-21T05:46:30.374Z,44.43
2018-07-21T05:48:59.573Z,43.74
2018-07-21T05:51:28.869Z,43.89
2018-07-21T05:53:58.080Z,42.71
2018-07-21T05:56:27.240Z,42.49
2018-07-21T05:58:56.511Z,42.12
2018-07-21T06:01:25.684Z,42.84
2018-07-21T06:03:54.853Z,42.75
2018-07-21T06:06:24.075Z,42.15
2018-07-21T06:08:53.318Z,42.71
2018-07-21T06:11:22.491Z,42.24
2018-07-21T06:13:51.722Z,42.60
2018-07-21T06:16:21.160Z,41.67
2018-07-21T06:18:50.308Z,40.99
2018-07-21T06:21:19.526Z,42.73
2018-07-21T06:23:48.739Z,42.13
2018-07-21T06:26:18.009Z,42.20
2018-07-21T06:28:47.253Z,41.56
2018-07-21T06:31:16.409Z,40.64
2018-07-21T06:33:45.605Z,39.65
2018-07-21T06:36:15.559Z,39.43
2018-07-21T06:38:44.689Z,40.44
2018-07-21T06:41:13.937Z,39.56
2018-07-21T06:43:43.106Z,39.27
2018-07-21T06:46:12.270Z,39.61
2018-07-21T06:48:41.500Z,39.07
2018-07-21T06:51:10.760Z,38.19
2018-07-21T06:53:39.913Z,37.89
2018-07-21T06:56:09.236Z,38.71
2018-07-21T06:58:38.460Z,38.69
2018-07-21T07:01:08.038Z,38.32
2018-07-21T07:03:37.209Z,37.47
2018-07-21T07:06:06.381Z,36.69
2018-07-21T07:08:35.728Z,36.93
2018-07-21T07:11:04.964Z,36.86
2018-07-21T07:13:34.231Z,36.63
2018-07-21T07:16:03.412Z,36.44
2018-07-21T07:18:32.624Z,37.36
2018-07-21T07:21:01.785Z,36.58
2018-07-21T07:23:31.083Z,36.35
2018-07-21T07:26:00.300Z,35.61
2018-07-21T07:28:29.516Z,36.50
2018-07-21T07:30:58.737Z,35.48
2018-07-21T07:33:28.014Z,35.01
2018-07-21T07:35:57.163Z,35.17
2018-07-21T07:38:26.508Z,35.79
2018-07-21T07:40:55.660Z,36.14
2018-07-21T07:43:24.917Z,35.62
2018-07-21T07:45:54.161Z,35.94
2018-07-21T07:48:23.397Z,36.17
2018-07-21T07:50:52.579Z,36.43
2018-07-21T07:53:21.808Z,36.26
2018-07-21T07:55:50.936Z,35.81
2018-07-21T07:58:20.212Z,35.84
2018-07-21T08:00:49.473Z,36.25
2018-07-21T08:03:18.709Z,36.12
2018-07-21T08:05:47.953Z,35.84
2018-07-21T08:08:17.189Z,36.04
2018-07-21T08:10:46.357Z,35.16
2018-07-21T08:13:15.545Z,35.27
2018-07-21T08:15:44.702Z,35.67
2018-07-21T08:18:13.864Z,35.84
2018-07-21T08:20:43.093Z,34.32
2018-07-21T08:23:12.400Z,34.89
2018-07-21T08:25:41.776Z,35.52
2018-07-21T08:28:10.893Z,34.78
2018-07-21T08:30:40.079Z,36.80
2018-07-21T08:33:09.266Z,35.76
2018-07-21T08:35:38.460Z,35.50
2018-07-21T08:38:07.638Z,33.56
2018-07-21T08:40:36.798Z,33.91
2018-07-21T08:43:05.997Z,34.88
2018-07-21T08:45:35.158Z,33.21
2018-07-21T08:48:04.324Z,32.96
2018-07-21T08:50:33.537Z,34.08
2018-07-21T08:53:02.696Z,33.52
2018-07-21T08:55:31.955Z,34.18
2018-07-21T08:58:01.129Z,32.88
2018-07-21T09:00:30.304Z,33.07
2018-07-21T09:03:00.356Z,33.62
2018-07-21T09:05:29.642Z,33.19
2018-07-21T09:07:58.842Z,32.28
2018-07-21T09:10:28.002Z,31.70
2018-07-21T09:12:57.129Z,32.08
2018-07-21T09:15:26.324Z,30.99
2018-07-21T09:17:55.481Z,30.26
2018-07-21T09:20:24.740Z,31.28
2018-07-21T09:22:53.920Z,32.34
2018-07-21T09:25:23.089Z,32.35
2018-07-21T09:27:52.266Z,31.44
2018-07-21T09:30:21.453Z,32.66
2018-07-21T09:32:50.637Z,32.63
2018-07-21T09:35:19.809Z,33.26
2018-07-21T09:37:49.024Z,33.93
2018-07-21T09:40:18.560Z,33.62
2018-07-21T09:42:47.758Z,33.32
2018-07-21T09:45:17.108Z,32.52
2018-07-21T09:47:46.277Z,32.53
2018-07-21T09:50:15.468Z,32.61
2018-07-21T09:52:44.656Z,32.15
2018-07-21T09:55:13.896Z,33.79
2018-07-21T09:57:43.241Z,33.03
2018-07-21T10:00:13.818Z,33.79
2018-07-21T10:02:42.924Z,34.06
2018-07-21T10:05:12.269Z,32.88
2018-07-21T10:07:41.420Z,32.76
2018-07-21T10:10:10.797Z,33.09
2018-07-21T10:12:39.968Z,33.27
2018-07-21T10:15:09.246Z,33.84
2018-07-21T10:17:38.417Z,33.63
2018-07-21T10:20:07.744Z,33.98
2018-07-21T10:22:36.960Z,33.96
2018-07-21T10:25:11.452Z,33.28
2018-07-21T10:27:45.881Z,33.96
2018-07-21T10:30:15.154Z,32.92
2018-07-21T10:32:44.350Z,34.18
2018-07-21T10:35:13.559Z,33.92
2018-07-21T10:37:42.801Z,33.74
2018-07-21T10:40:12.066Z,34.15
2018-07-21T10:42:41.413Z,34.66
2018-07-21T10:45:10.645Z,34.67
2018-07-21T10:47:39.901Z,34.29
2018-07-21T10:50:09.136Z,34.52
2018-07-21T10:52:38.296Z,33.99
2018-07-21T10:55:07.568Z,33.48
2018-07-21T10:57:36.785Z,34.80
2018-07-21T11:00:07.402Z,35.48
2018-07-21T11:02:36.649Z,35.30
2018-07-21T11:05:06.733Z,35.40
2018-07-21T11:07:36.076Z,37.71
2018-07-21T11:10:05.708Z,37.10
2018-07-21T11:12:34.985Z,37.94
2018-07-21T11:15:04.795Z,36.61
2018-07-21T11:17:34.607Z,36.90
2018-07-21T11:20:04.305Z,37.87
2018-07-21T11:22:33.512Z,37.80
2018-07-21T11:25:03.052Z,38.49
2018-07-21T11:27:32.339Z,39.13
2018-07-21T11:30:01.474Z,41.77
2018-07-21T11:32:30.712Z,43.37
2018-07-21T11:35:00.019Z,43.98
2018-07-21T11:37:29.209Z,44.17
2018-07-21T11:39:58.375Z,46.14
2018-07-21T11:42:27.712Z,46.68
2018-07-21T11:44:56.964Z,46.46
2018-07-21T11:47:26.820Z,47.31
2018-07-21T11:49:55.938Z,49.62
2018-07-21T11:52:25.259Z,47.78
2018-07-21T11:54:54.377Z,48.31
2018-07-21T11:57:23.608Z,49.18
2018-07-21T11:59:52.757Z,48.87
2018-07-21T12:02:22.015Z,48.02
2018-07-21T12:04:51.336Z,46.28
2018-07-21T12:07:20.739Z,47.18
2018-07-21T12:09:49.951Z,47.39
2018-07-21T12:12:19.214Z,47.43
2018-07-21T12:14:48.347Z,48.14
2018-07-21T12:17:17.600Z,48.01
2018-07-21T12:19:46.944Z,47.91
2018-07-21T12:22:16.189Z,48.64
2018-07-21T12:24:45.380Z,49.49
2018-07-21T12:27:14.568Z,51.18
2018-07-21T12:29:43.712Z,52.74
2018-07-21T12:32:13.265Z,54.20
2018-07-21T12:34:42.481Z,54.90
2018-07-21T12:37:11.677Z,56.16
2018-07-21T12:39:40.903Z,57.96
2018-07-21T12:42:10.165Z,57.17
2018-07-21T12:44:39.533Z,57.84
2018-07-21T12:47:08.752Z,59.81
2018-07-21T12:49:38.696Z,60.08
2018-07-21T12:52:07.851Z,60.72
2018-07-21T12:54:37.096Z,61.13
2018-07-21T12:57:06.573Z,62.11
2018-07-21T12:59:35.737Z,62.51
2018-07-21T13:02:04.968Z,62.98
2018-07-21T13:04:35.283Z,63.00
2018-07-21T13:07:04.493Z,64.56
2018-07-21T13:09:33.829Z,63.76
2018-07-21T13:12:02.985Z,63.79
2018-07-21T13:14:32.227Z,64.11
2018-07-21T13:17:01.381Z,64.89
2018-07-21T13:19:30.596Z,64.54
2018-07-21T13:21:59.761Z,64.44
2018-07-21T13:24:28.992Z,63.17
2018-07-21T13:26:58.152Z,63.67
2018-07-21T13:29:28.416Z,62.58
2018-07-21T13:31:57.712Z,64.25
2018-07-21T13:34:26.884Z,63.60
2018-07-21T13:36:56.099Z,63.16
2018-07-21T13:39:25.297Z,61.93
2018-07-21T13:41:54.464Z,62.43
2018-07-21T13:44:23.744Z,61.55
2018-07-21T13:46:53.016Z,61.85
2018-07-21T13:49:22.206Z,61.89
2018-07-21T13:51:51.349Z,61.71
2018-07-21T13:54:20.812Z,62.76
2018-07-21T13:56:50.125Z,62.18
2018-07-21T13:59:19.396Z,61.00
2018-07-21T14:01:48.520Z,61.11
2018-07-21T14:04:17.788Z,60.68
2018-07-21T14:06:46.975Z,61.49
2018-07-21T14:09:16.203Z,61.67
2018-07-21T14:11:45.441Z,61.85
2018-07-21T14:14:14.781Z,61.00
2018-07-21T14:16:43.943Z,59.59
2018-07-21T14:19:13.169Z,61.23
2018-07-21T14:21:42.330Z,62.03
2018-07-21T14:24:11.571Z,62.06
2018-07-21T14:26:40.784Z,63.32
2018-07-21T14:29:10.158Z,61.59
2018-07-21T14:31:39.291Z,61.25
2018-07-21T14:34:08.600Z,61.17
2018-07-21T14:36:37.868Z,60.82
2018-07-21T14:39:09.478Z,61.52
2018-07-21T14:41:39.367Z,61.79
2018-07-21T14:44:09.060Z,61.81
2018-07-21T14:46:39.158Z,62.00
2018-07-21T14:49:08.380Z,61.15
2018-07-21T14:51:37.509Z,63.13
2018-07-21T14:54:06.942Z,62.83
2018-07-21T14:56:36.078Z,63.17
2018-07-21T14:59:05.349Z,63.12
2018-07-21T15:01:34.532Z,64.57
2018-07-21T15:04:03.858Z,65.59
2018-07-21T15:06:33.000Z,65.64
2018-07-21T15:09:02.260Z,64.66
2018-07-21T15:11:31.410Z,65.40
2018-07-21T15:14:00.659Z,64.51
2018-07-21T15:16:29.810Z,64.13
2018-07-21T15:18:58.981Z,63.66
2018-07-21T15:21:28.183Z,64.74
2018-07-21T15:23:57.409Z,64.45
2018-07-21T15:26:26.521Z,63.48
2018-07-21T15:28:55.774Z,62.69
2018-07-21T15:31:24.997Z,63.02
2018-07-21T15:33:54.378Z,63.46
2018-07-21T15:36:23.577Z,63.65
2018-07-21T15:38:52.814Z,64.42
2018-07-21T15:41:22.836Z,62.61
2018-07-21T15:43:53.179Z,62.37
2018-07-21T15:46:22.305Z,63.14
2018-07-21T15:48:51.627Z,62.44
2018-07-21T15:51:20.866Z,60.90
2018-07-21T15:53:49.990Z,60.36
2018-07-21T15:56:19.239Z,60.87
2018-07-21T15:58:48.404Z,61.07
2018-07-21T16:01:17.768Z,61.22
2018-07-21T16:03:47.164Z,60.90
2018-07-21T16:06:16.359Z,60.50
2018-07-21T16:08:45.649Z,61.18
2018-07-21T16:11:14.833Z,61.72
2018-07-21T16:13:44.028Z,62.22
2018-07-21T16:16:13.280Z,62.44
2018-07-21T16:18:42.519Z,60.95
2018-07-21T16:21:11.682Z,59.94
2018-07-21T16:23:40.921Z,60.41
2018-07-21T16:26:10.088Z,61.67
2018-07-21T16:28:39.272Z,61.69
2018-07-21T16:31:08.381Z,60.28
2018-07-21T16:33:37.720Z,60.68
2018-07-21T16:36:06.858Z,60.86
2018-07-21T16:38:35.968Z,61.01
2018-07-21T16:41:05.301Z,61.22
2018-07-21T16:43:34.428Z,60.92
2018-07-21T16:46:04.054Z,61.94
2018-07-21T16:48:33.181Z,60.60
2018-07-21T16:51:02.501Z,60.11
2018-07-21T16:53:31.656Z,60.92
2018-07-21T16:56:01.000Z,61.20
2018-07-21T16:58:30.504Z,61.39
2018-07-21T17:00:59.804Z,62.05
2018-07-21T17:03:28.954Z,62.27
2018-07-21T17:05:58.181Z,62.45
2018-07-21T17:08:27.613Z,62.19
2018-07-21T17:10:56.767Z,61.80
2018-07-21T17:13:25.937Z,63.35
2018-07-21T17:15:55.181Z,62.83
2018-07-21T17:18:24.333Z,63.90
2018-07-21T17:20:53.585Z,62.51
2018-07-21T17:23:22.856Z,63.26
2018-07-21T17:25:52.086Z,64.58
2018-07-21T17:28:21.314Z,64.41
2018-07-21T17:30:50.576Z,65.79
2018-07-21T17:33:20.974Z,65.46
2018-07-21T17:35:50.321Z,65.43
2018-07-21T17:38:19.582Z,66.22
2018-07-21T17:40:49.621Z,66.40
2018-07-21T17:43:18.776Z,66.66
2018-07-21T17:45:48.013Z,66.98
2018-07-21T17:48:17.288Z,67.08
2018-07-21T17:50:46.457Z,67.00
2018-07-21T17:53:15.621Z,67.11
2018-07-21T17:55:44.792Z,66.83
2018-07-21T17:58:14.156Z,66.27
2018-07-21T18:00:43.404Z,67.38
2018-07-21T18:03:12.559Z,68.26
2018-07-21T18:05:41.900Z,67.44
2018-07-21T18:08:11.049Z,67.72
2018-07-21T18:10:40.193Z,68.56
2018-07-21T18:13:09.357Z,68.64
2018-07-21T18:15:38.686Z,68.59
2018-07-21T18:18:07.978Z,68.78
2018-07-21T18:20:37.140Z,69.44
2018-07-21T18:23:06.391Z,69.12
2018-07-21T18:25:35.742Z,69.24
2018-07-21T18:28:05.086Z,69.32
2018-07-21T18:30:34.266Z,69.45
2018-07-21T18:33:03.497Z,69.27
2018-07-21T18:35:32.791Z,68.25
2018-07-21T18:38:01.939Z,69.40
2018-07-21T18:40:31.076Z,69.20
2018-07-21T18:43:00.290Z,69.83
2018-07-21T18:45:29.473Z,69.09
2018-07-21T18:47:58.665Z,69.02
2018-07-21T18:50:27.816Z,68.58
2018-07-21T18:52:57.055Z,67.99
2018-07-21T18:55:26.222Z,68.88
2018-07-21T18:57:55.385Z,68.93
2018-07-21T19:00:24.605Z,68.54
2018-07-21T19:02:53.838Z,69.67
2018-07-21T19:05:23.004Z,69.04
2018-07-21T19:07:52.240Z,69.32
2018-07-21T19:10:21.391Z,69.04
2018-07-21T19:12:50.912Z,69.40
2018-07-21T19:15:25.397Z,69.49
2018-07-21T19:17:54.592Z,68.74
2018-07-21T19:20:29.019Z,69.41
2018-07-21T19:22:58.213Z,69.93
2018-07-21T19:25:32.701Z,70.51
2018-07-21T19:28:01.894Z,69.69
2018-07-21T19:30:31.093Z,70.30
2018-07-21T19:33:01.449Z,70.43
2018-07-21T19:35:31.958Z,71.29
2018-07-21T19:38:01.246Z,71.38
2018-07-21T19:40:30.406Z,70.80
2018-07-21T19:42:59.636Z,70.67
2018-07-21T19:45:28.798Z,70.29
2018-07-21T19:47:58.089Z,70.81
2018-07-21T19:50:27.285Z,70.40
2018-07-21T19:52:56.532Z,70.23
2018-07-21T19:55:25.684Z,70.31
2018-07-21T19:57:54.844Z,70.33
2018-07-21T20:00:24.084Z,69.75
2018-07-21T20:02:53.419Z,70.11
2018-07-21T20:05:22.799Z,69.93
2018-07-21T20:07:52.042Z,70.05
2018-07-21T20:10:21.204Z,70.14
2018-07-21T20:12:50.352Z,69.84
2018-07-21T20:15:19.615Z,70.44
2018-07-21T20:17:48.905Z,70.30
2018-07-21T20:20:18.684Z,70.17
2018-07-21T20:22:47.913Z,70.37
2018-07-21T20:25:17.085Z,71.01
2018-07-21T20:27:46.308Z,70.63
2018-07-21T20:30:15.938Z,70.83
2018-07-21T20:32:45.148Z,70.47
2018-07-21T20:35:14.447Z,70.55
2018-07-21T20:37:43.623Z,71.35
2018-07-21T20:40:12.821Z,71.49
2018-07-21T20:42:42.115Z,71.00
2018-07-21T20:45:11.345Z,70.93
2018-07-21T20:47:40.517Z,71.21
2018-07-21T20:50:09.704Z,71.51
2018-07-21T20:52:38.893Z,71.60
2018-07-21T20:55:08.096Z,71.54
2018-07-21T20:57:37.297Z,71.18
2018-07-21T21:00:07.013Z,70.54
2018-07-21T21:02:36.303Z,71.55
2018-07-21T21:05:05.597Z,71.71
2018-07-21T21:07:34.801Z,72.25
2018-07-21T21:10:04.299Z,72.10
2018-07-21T21:12:33.444Z,71.67
2018-07-21T21:15:02.720Z,72.15
2018-07-21T21:17:31.913Z,71.83
2018-07-21T21:20:01.187Z,71.85
2018-07-21T21:22:30.401Z,71.98
2018-07-21T21:24:59.626Z,71.81
2018-07-21T21:27:29.917Z,71.83
2018-07-21T21:29:59.108Z,71.96
2018-07-21T21:32:28.433Z,71.90
2018-07-21T21:34:57.643Z,71.84
2018-07-21T21:37:26.785Z,71.56
2018-07-21T21:39:56.009Z,71.47
2018-07-21T21:42:25.240Z,72.37
2018-07-21T21:44:54.400Z,71.38
2018-07-21T21:47:23.556Z,70.34
2018-07-21T21:49:52.791Z,71.62
2018-07-21T21:52:22.049Z,72.27
2018-07-21T21:54:51.292Z,71.61
2018-07-21T21:57:20.466Z,71.82
2018-07-21T21:59:49.684Z,72.42
2018-07-21T22:02:18.949Z,71.69
2018-07-21T22:04:48.202Z,71.86
2018-07-21T22:07:17.437Z,71.90
2018-07-21T22:09:46.707Z,71.10
2018-07-21T22:12:15.961Z,71.79
2018-07-21T22:14:45.135Z,72.11
2018-07-21T22:17:14.325Z,71.98
2018-07-21T22:19:43.557Z,72.28
2018-07-21T22:22:12.703Z,72.55
2018-07-21T22:24:41.956Z,72.96
2018-07-21T22:27:11.114Z,72.82
2018-07-21T22:29:42.132Z,72.79
2018-07-21T22:32:14.138Z,72.46
2018-07-21T22:34:43.298Z,72.87
2018-07-21T22:37:12.453Z,72.84
2018-07-21T22:39:41.642Z,72.82
2018-07-21T22:42:10.852Z,72.59
2018-07-21T22:44:40.854Z,72.60
2018-07-21T22:47:10.394Z,72.14
2018-07-21T22:49:39.524Z,72.39
2018-07-21T22:52:08.766Z,72.10
2018-07-21T22:54:37.909Z,72.29
2018-07-21T22:57:07.089Z,73.08
2018-07-21T22:59:36.341Z,74.40
2018-07-21T23:02:06.806Z,74.22
2018-07-21T23:04:36.340Z,73.48
2018-07-21T23:07:05.737Z,74.31
2018-07-21T23:09:34.870Z,74.13
2018-07-21T23:12:04.235Z,72.68
2018-07-21T23:14:33.371Z,72.33
2018-07-21T23:17:02.578Z,72.13
2018-07-21T23:19:31.726Z,71.60
2018-07-21T23:22:00.913Z,71.38
2018-07-21T23:24:30.373Z,71.25
2018-07-21T23:26:59.542Z,71.43
2018-07-21T23:29:29.018Z,71.21
2018-07-21T23:31:58.638Z,71.38
2018-07-21T23:34:28.755Z,71.62
2018-07-21T23:36:57.956Z,71.28
2018-07-21T23:39:27.091Z,71.74
2018-07-21T23:41:56.286Z,70.97
2018-07-21T23:44:25.512Z,72.11
2018-07-21T23:46:54.670Z,73.07
2018-07-21T23:49:23.780Z,72.52
2018-07-21T23:51:53.010Z,72.46
2018-07-21T23:54:22.149Z,73.15
2018-07-21T23:56:51.308Z,73.10
2018-07-21T23:59:20.482Z,72.79
